createdAt,value
2016-08-26T00:00:04.007Z,1000.59
2016-08-26T00:00:30.510Z,1000.55
2016-08-26T00:00:53.229Z,1000.72
2016-08-26T00:01:14.963Z,1000.68
2016-08-26T00:01:36.700Z,1000.51
2016-08-26T00:01:59.487Z,1000.37
2016-08-26T00:02:25.982Z,1000.81
2016-08-26T00:02:52.493Z,1000.79
2016-08-26T00:03:14.211Z,1000.72
2016-08-26T00:03:41.821Z,1000.37
2016-08-26T00:04:03.574Z,1000.47
2016-08-26T00:04:25.299Z,1000.51
2016-08-26T00:04:47.075Z,1000.64
2016-08-26T00:05:08.806Z,1000.58
2016-08-26T00:05:30.535Z,1000.62
2016-08-26T00:05:53.263Z,1000.73
2016-08-26T00:06:15.999Z,1000.49
2016-08-26T00:06:42.505Z,1000.61
2016-08-26T00:07:08.997Z,1000.69
2016-08-26T00:07:30.717Z,1000.72
2016-08-26T00:07:52.452Z,1000.48
2016-08-26T00:08:14.208Z,1000.69
2016-08-26T00:08:35.933Z,1000.69
2016-08-26T00:08:57.659Z,1000.57
2016-08-26T00:09:19.392Z,1000.60
2016-08-26T00:09:42.148Z,1000.64
2016-08-26T00:10:03.870Z,1000.97
2016-08-26T00:10:25.607Z,1000.66
2016-08-26T00:10:49.890Z,1000.39
2016-08-26T00:11:11.627Z,1000.32
2016-08-26T00:11:33.361Z,1000.59
2016-08-26T00:11:57.944Z,1000.66
2016-08-26T00:12:19.695Z,1000.85
2016-08-26T00:12:41.428Z,1000.43
2016-08-26T00:13:05.954Z,1000.49
2016-08-26T00:13:27.704Z,1000.63
2016-08-26T00:13:49.441Z,1000.59
2016-08-26T00:14:11.168Z,1000.51
2016-08-26T00:14:32.895Z,1000.65
2016-08-26T00:14:54.621Z,1000.53
2016-08-26T00:15:43.930Z,1000.46
2016-08-26T00:16:10.414Z,1000.68
2016-08-26T00:16:32.182Z,1000.58
2016-08-26T00:16:58.870Z,1000.34
2016-08-26T00:17:20.617Z,1000.54
2016-08-26T00:17:42.346Z,1000.66
2016-08-26T00:18:04.137Z,1000.47
2016-08-26T00:18:25.872Z,1000.59
2016-08-26T00:18:47.618Z,1000.68
2016-08-26T00:19:10.349Z,1000.56
2016-08-26T00:19:32.084Z,1000.41
2016-08-26T00:19:53.824Z,1000.57
2016-08-26T00:20:15.572Z,1000.40
2016-08-26T00:20:38.306Z,1000.49
2016-08-26T00:21:00.041Z,1000.52
2016-08-26T00:21:21.830Z,1000.83
2016-08-26T00:21:43.586Z,1000.41
2016-08-26T00:22:05.322Z,1000.43
2016-08-26T00:22:27.061Z,1000.67
2016-08-26T00:22:48.789Z,1000.50
2016-08-26T00:23:10.528Z,1000.33
2016-08-26T00:23:32.262Z,1000.58
2016-08-26T00:23:54.005Z,1000.48
2016-08-26T00:24:15.747Z,1000.48
2016-08-26T00:24:37.500Z,1000.47
2016-08-26T00:24:59.243Z,1000.47
2016-08-26T00:25:20.967Z,1000.53
2016-08-26T00:25:47.465Z,1000.61
2016-08-26T00:26:09.194Z,1000.50
2016-08-26T00:26:30.915Z,1000.48
2016-08-26T00:26:52.634Z,1000.54
2016-08-26T00:27:19.129Z,1000.58
2016-08-26T00:27:40.853Z,1000.53
2016-08-26T00:28:02.579Z,1000.38
2016-08-26T00:28:24.307Z,1000.51
2016-08-26T00:28:46.159Z,1000.49
2016-08-26T00:29:07.893Z,1000.44
2016-08-26T00:29:29.633Z,1000.40
2016-08-26T00:29:51.370Z,1000.52
2016-08-26T00:30:13.139Z,1000.63
2016-08-26T00:30:35.875Z,1000.19
2016-08-26T00:30:58.655Z,1000.35
2016-08-26T00:31:20.416Z,1000.35
2016-08-26T00:31:42.141Z,1000.46
2016-08-26T00:32:08.677Z,1000.72
2016-08-26T00:32:35.303Z,1000.70
2016-08-26T00:32:57.028Z,1000.36
2016-08-26T00:33:18.751Z,1000.32
2016-08-26T00:33:45.248Z,1000.45
2016-08-26T00:34:06.975Z,1000.47
2016-08-26T00:34:33.473Z,1000.41
2016-08-26T00:34:55.235Z,1000.55
2016-08-26T00:35:16.957Z,1000.58
2016-08-26T00:35:38.695Z,1000.54
2016-08-26T00:36:31.702Z,1000.46
2016-08-26T00:36:54.427Z,1000.68
2016-08-26T00:37:16.167Z,1000.63
2016-08-26T00:37:42.659Z,1000.47
2016-08-26T00:38:30.901Z,1000.68
2016-08-26T00:38:52.655Z,1000.64
2016-08-26T00:39:19.149Z,1000.51
2016-08-26T00:39:40.921Z,1000.66
2016-08-26T00:40:02.643Z,1000.64
2016-08-26T00:40:24.383Z,1000.69
2016-08-26T00:40:46.178Z,1000.52
2016-08-26T00:41:07.890Z,1000.46
2016-08-26T00:41:29.615Z,1000.70
2016-08-26T00:41:54.032Z,1000.60
2016-08-26T00:42:20.529Z,1000.47
2016-08-26T00:42:48.034Z,1000.70
2016-08-26T00:43:09.782Z,1000.37
2016-08-26T00:43:32.500Z,1000.67
2016-08-26T00:43:54.224Z,1000.73
2016-08-26T00:44:16.965Z,1000.47
2016-08-26T00:44:38.719Z,1000.62
2016-08-26T00:45:00.438Z,1000.68
2016-08-26T00:45:22.156Z,1000.86
2016-08-26T00:45:43.888Z,1000.53
2016-08-26T00:46:05.616Z,1000.75
2016-08-26T00:46:27.451Z,1000.62
2016-08-26T00:46:49.174Z,1000.68
2016-08-26T00:47:10.915Z,1000.80
2016-08-26T00:47:32.656Z,1000.82
2016-08-26T00:47:54.385Z,1000.85
2016-08-26T00:48:16.144Z,1000.71
2016-08-26T00:48:37.899Z,1000.63
2016-08-26T00:48:59.623Z,1000.54
2016-08-26T00:49:21.414Z,1000.38
2016-08-26T00:49:43.166Z,1000.57
2016-08-26T00:50:04.905Z,1000.55
2016-08-26T00:50:26.769Z,1000.64
2016-08-26T00:50:51.108Z,1000.61
2016-08-26T00:51:39.343Z,1000.63
2016-08-26T00:52:06.679Z,1000.48
2016-08-26T00:52:28.407Z,1000.40
2016-08-26T00:52:50.192Z,1000.73
2016-08-26T00:53:11.923Z,1000.63
2016-08-26T00:53:33.653Z,1000.74
2016-08-26T00:53:55.392Z,1000.65
2016-08-26T00:54:17.131Z,1000.62
2016-08-26T00:54:38.860Z,1000.58
2016-08-26T00:55:05.356Z,1000.62
2016-08-26T00:55:27.114Z,1000.74
2016-08-26T00:55:48.833Z,1000.60
2016-08-26T00:56:10.567Z,1000.72
2016-08-26T00:56:32.297Z,1000.65
2016-08-26T00:56:58.804Z,1000.74
2016-08-26T00:57:20.570Z,1000.90
2016-08-26T00:57:42.304Z,1000.59
2016-08-26T00:58:04.022Z,1000.37
2016-08-26T00:58:25.742Z,1000.49
2016-08-26T00:58:47.496Z,1000.58
2016-08-26T00:59:13.994Z,1000.57
2016-08-26T00:59:36.711Z,1000.63
2016-08-26T00:59:58.461Z,1000.79
2016-08-26T01:00:20.206Z,1000.70
2016-08-26T01:00:41.955Z,1000.76
2016-08-26T01:01:03.901Z,1000.89
2016-08-26T01:01:25.629Z,1000.54
2016-08-26T01:01:47.345Z,1000.61
2016-08-26T01:02:09.100Z,1000.73
2016-08-26T01:02:30.819Z,1000.87
2016-08-26T01:02:52.554Z,1000.78
2016-08-26T01:03:14.285Z,1000.61
2016-08-26T01:03:36.011Z,1000.42
2016-08-26T01:03:57.735Z,1000.63
2016-08-26T01:04:19.497Z,1000.52
2016-08-26T01:04:41.224Z,1000.54
2016-08-26T01:05:02.954Z,1000.63
2016-08-26T01:05:24.682Z,1000.81
2016-08-26T01:05:46.404Z,1000.88
2016-08-26T01:06:08.137Z,1000.59
2016-08-26T01:06:29.878Z,1000.83
2016-08-26T01:06:51.654Z,1000.68
2016-08-26T01:07:13.402Z,1000.82
2016-08-26T01:07:40.916Z,1000.69
2016-08-26T01:08:02.641Z,1000.63
2016-08-26T01:08:24.366Z,1000.89
2016-08-26T01:08:46.087Z,1000.90
2016-08-26T01:09:07.814Z,1000.86
2016-08-26T01:09:34.451Z,1000.82
2016-08-26T01:09:58.745Z,1000.86
2016-08-26T01:10:20.535Z,1000.54
2016-08-26T01:10:42.249Z,1000.57
2016-08-26T01:11:03.980Z,1000.81
2016-08-26T01:11:25.739Z,1000.69
2016-08-26T01:11:47.468Z,1001.00
2016-08-26T01:12:09.256Z,1000.80
2016-08-26T01:12:30.979Z,1000.77
2016-08-26T01:12:52.700Z,1000.79
2016-08-26T01:13:14.436Z,1000.56
2016-08-26T01:13:36.165Z,1000.55
2016-08-26T01:13:57.896Z,1000.61
2016-08-26T01:14:19.648Z,1000.74
2016-08-26T01:14:41.424Z,1000.45
2016-08-26T01:15:03.196Z,1000.33
2016-08-26T01:15:29.695Z,1000.82
2016-08-26T01:15:51.441Z,1000.90
2016-08-26T01:16:13.160Z,1000.90
2016-08-26T01:16:34.886Z,1001.04
2016-08-26T01:16:56.633Z,1000.62
2016-08-26T01:17:18.423Z,1000.69
2016-08-26T01:17:40.145Z,1001.04
2016-08-26T01:18:01.869Z,1000.67
2016-08-26T01:18:23.593Z,1000.72
2016-08-26T01:18:45.321Z,1000.83
2016-08-26T01:19:07.047Z,1000.80
2016-08-26T01:19:28.802Z,1001.16
2016-08-26T01:19:50.582Z,1000.66
2016-08-26T01:20:12.346Z,1000.74
2016-08-26T01:20:34.065Z,1000.62
2016-08-26T01:20:55.792Z,1000.75
2016-08-26T01:21:17.516Z,1000.86
2016-08-26T01:21:39.272Z,1000.63
2016-08-26T01:22:01.092Z,1000.72
2016-08-26T01:22:22.813Z,1000.85
2016-08-26T01:22:44.551Z,1000.73
2016-08-26T01:23:06.277Z,1000.93
2016-08-26T01:23:28.014Z,1000.58
2016-08-26T01:23:49.754Z,1000.96
2016-08-26T01:24:11.517Z,1000.94
2016-08-26T01:24:33.236Z,1000.98
2016-08-26T01:24:54.985Z,1001.05
2016-08-26T01:25:17.701Z,1000.80
2016-08-26T01:25:44.196Z,1001.30
2016-08-26T01:26:05.926Z,1001.01
2016-08-26T01:26:32.436Z,1000.78
2016-08-26T01:26:54.164Z,1000.42
2016-08-26T01:27:15.892Z,1000.38
2016-08-26T01:27:37.613Z,1000.62
2016-08-26T01:27:59.357Z,1000.54
2016-08-26T01:28:21.177Z,1000.55
2016-08-26T01:28:42.912Z,1000.70
2016-08-26T01:29:04.647Z,1000.73
2016-08-26T01:29:26.371Z,1000.93
2016-08-26T01:29:48.094Z,1001.21
2016-08-26T01:30:10.826Z,1001.02
2016-08-26T01:30:32.620Z,1000.79
2016-08-26T01:30:54.370Z,1000.98
2016-08-26T01:31:16.096Z,1000.83
2016-08-26T01:31:37.833Z,1000.69
2016-08-26T01:31:59.553Z,1000.73
2016-08-26T01:32:21.289Z,1001.02
2016-08-26T01:32:43.012Z,1000.94
2016-08-26T01:33:04.738Z,1000.93
2016-08-26T01:33:26.455Z,1000.79
2016-08-26T01:33:48.281Z,1000.84
2016-08-26T01:34:10.005Z,1001.05
2016-08-26T01:34:36.496Z,1000.92
2016-08-26T01:34:59.229Z,1000.95
2016-08-26T01:35:20.993Z,1000.88
2016-08-26T01:35:42.792Z,1000.81
2016-08-26T01:36:04.511Z,1000.88
2016-08-26T01:36:26.236Z,1000.89
2016-08-26T01:36:47.954Z,1000.75
2016-08-26T01:37:09.695Z,1000.65
2016-08-26T01:37:31.421Z,1000.70
2016-08-26T01:37:53.146Z,1000.85
2016-08-26T01:38:14.921Z,1001.08
2016-08-26T01:38:36.667Z,1000.69
2016-08-26T01:38:58.401Z,1000.72
2016-08-26T01:39:20.123Z,1000.81
2016-08-26T01:39:41.861Z,1001.17
2016-08-26T01:40:03.642Z,1001.09
2016-08-26T01:40:25.412Z,1000.98
2016-08-26T01:40:47.213Z,1001.08
2016-08-26T01:41:08.938Z,1001.11
2016-08-26T01:41:30.724Z,1000.86
2016-08-26T01:41:52.506Z,1000.78
2016-08-26T01:42:19.056Z,1001.00
2016-08-26T01:42:40.798Z,1000.84
2016-08-26T01:43:02.548Z,1000.69
2016-08-26T01:43:24.430Z,1000.74
2016-08-26T01:43:46.223Z,1000.76
2016-08-26T01:44:07.958Z,1000.94
2016-08-26T01:44:29.709Z,1001.00
2016-08-26T01:44:51.443Z,1000.70
2016-08-26T01:45:13.169Z,1000.83
2016-08-26T01:45:34.893Z,1000.84
2016-08-26T01:46:01.392Z,1001.24
2016-08-26T01:46:24.119Z,1000.88
2016-08-26T01:46:45.854Z,1000.89
2016-08-26T01:47:07.578Z,1000.89
2016-08-26T01:47:29.322Z,1001.07
2016-08-26T01:47:51.089Z,1000.89
2016-08-26T01:48:12.856Z,1000.97
2016-08-26T01:48:34.596Z,1001.03
2016-08-26T01:48:56.385Z,1001.05
2016-08-26T01:49:18.151Z,1000.92
2016-08-26T01:49:39.889Z,1000.84
2016-08-26T01:50:01.618Z,1001.05
2016-08-26T01:50:23.360Z,1000.97
2016-08-26T01:50:45.083Z,1000.77
2016-08-26T01:51:06.807Z,1000.85
2016-08-26T01:51:28.537Z,1000.85
2016-08-26T01:51:55.049Z,1000.89
2016-08-26T01:52:16.784Z,1000.72
2016-08-26T01:52:38.538Z,1001.13
2016-08-26T01:53:00.263Z,1001.07
2016-08-26T01:53:22.990Z,1000.78
2016-08-26T01:53:44.719Z,1000.64
2016-08-26T01:54:06.474Z,1000.79
2016-08-26T01:54:28.197Z,1000.86
2016-08-26T01:54:50.918Z,1001.08
2016-08-26T01:55:12.639Z,1000.74
2016-08-26T01:55:34.374Z,1000.97
2016-08-26T01:55:56.100Z,1000.95
2016-08-26T01:56:17.836Z,1000.73
2016-08-26T01:56:39.555Z,1000.96
2016-08-26T01:57:01.305Z,1001.14
2016-08-26T01:57:23.031Z,1000.64
2016-08-26T01:57:44.778Z,1000.88
2016-08-26T01:58:06.528Z,1000.98
2016-08-26T01:58:28.275Z,1001.04
2016-08-26T01:58:50.075Z,1000.91
2016-08-26T01:59:11.804Z,1000.71
2016-08-26T01:59:34.522Z,1000.78
2016-08-26T01:59:56.242Z,1000.93
2016-08-26T02:00:17.962Z,1001.36
2016-08-26T02:00:39.736Z,1001.24
2016-08-26T02:01:01.463Z,1000.74
2016-08-26T02:01:27.960Z,1000.54
2016-08-26T02:01:49.698Z,1000.88
2016-08-26T02:02:11.434Z,1000.74
2016-08-26T02:02:33.154Z,1000.74
2016-08-26T02:02:54.868Z,1000.81
2016-08-26T02:03:16.676Z,1000.80
2016-08-26T02:03:38.513Z,1000.73
2016-08-26T02:04:00.235Z,1001.03
2016-08-26T02:04:21.982Z,1000.95
2016-08-26T02:04:43.707Z,1001.34
2016-08-26T02:05:05.430Z,1000.99
2016-08-26T02:05:27.213Z,1000.80
2016-08-26T02:05:48.942Z,1001.13
2016-08-26T02:06:10.679Z,1000.94
2016-08-26T02:06:32.422Z,1001.10
2016-08-26T02:07:21.637Z,1001.09
2016-08-26T02:07:48.172Z,1001.03
2016-08-26T02:08:09.898Z,1000.90
2016-08-26T02:08:31.633Z,1000.90
2016-08-26T02:08:53.353Z,1001.25
2016-08-26T02:09:15.188Z,1001.35
2016-08-26T02:10:08.255Z,1001.06
2016-08-26T02:10:29.991Z,1001.02
2016-08-26T02:10:56.492Z,1001.02
2016-08-26T02:11:18.254Z,1001.03
2016-08-26T02:11:39.972Z,1000.98
2016-08-26T02:12:02.710Z,1000.69
2016-08-26T02:12:24.456Z,1000.86
2016-08-26T02:12:48.410Z,1001.16
2016-08-26T02:13:11.258Z,1001.09
2016-08-26T02:13:33.191Z,1000.87
2016-08-26T02:13:55.140Z,1001.04
2016-08-26T02:14:17.885Z,1000.93
2016-08-26T02:14:39.640Z,1000.98
2016-08-26T02:15:01.370Z,1000.97
2016-08-26T02:15:27.900Z,1001.09
2016-08-26T02:15:49.646Z,1001.07
2016-08-26T02:16:12.375Z,1001.08
2016-08-26T02:16:34.101Z,1000.90
2016-08-26T02:16:55.832Z,1001.06
2016-08-26T02:17:17.663Z,1001.00
2016-08-26T02:17:44.174Z,1000.66
2016-08-26T02:18:05.920Z,1000.80
2016-08-26T02:18:54.164Z,1000.96
2016-08-26T02:19:15.878Z,1001.20
2016-08-26T02:19:37.607Z,1001.19
2016-08-26T02:19:59.342Z,1001.04
2016-08-26T02:20:21.068Z,1000.97
2016-08-26T02:20:42.806Z,1001.24
2016-08-26T02:21:04.526Z,1000.98
2016-08-26T02:21:31.021Z,1001.16
2016-08-26T02:21:52.753Z,1001.18
2016-08-26T02:22:14.493Z,1001.24
2016-08-26T02:22:36.283Z,1001.17
2016-08-26T02:23:04.765Z,1001.09
2016-08-26T02:23:26.498Z,1000.94
2016-08-26T02:23:48.215Z,1000.94
2016-08-26T02:24:09.979Z,1001.06
2016-08-26T02:24:31.696Z,1000.77
2016-08-26T02:24:53.419Z,1000.89
2016-08-26T02:25:46.401Z,1000.95
2016-08-26T02:26:08.139Z,1001.08
2016-08-26T02:26:29.855Z,1001.11
2016-08-26T02:26:56.344Z,1001.24
2016-08-26T02:27:18.065Z,1001.09
2016-08-26T02:27:39.828Z,1001.18
2016-08-26T02:28:01.551Z,1000.84
2016-08-26T02:28:23.280Z,1001.00
2016-08-26T02:28:45.008Z,1001.27
2016-08-26T02:29:06.740Z,1001.14
2016-08-26T02:29:28.458Z,1001.13
2016-08-26T02:29:50.231Z,1001.08
2016-08-26T02:30:11.963Z,1001.14
2016-08-26T02:30:33.691Z,1001.25
2016-08-26T02:30:55.420Z,1001.14
2016-08-26T02:31:17.207Z,1001.19
2016-08-26T02:31:39.948Z,1001.10
2016-08-26T02:32:01.713Z,1001.07
2016-08-26T02:32:23.486Z,1000.82
2016-08-26T02:32:49.985Z,1000.85
2016-08-26T02:33:11.720Z,1000.86
2016-08-26T02:33:33.458Z,1001.06
2016-08-26T02:33:55.202Z,1000.80
2016-08-26T02:34:16.926Z,1001.12
2016-08-26T02:34:41.423Z,1001.20
2016-08-26T02:35:03.151Z,1001.31
2016-08-26T02:35:24.875Z,1001.17
2016-08-26T02:35:46.618Z,1001.06
2016-08-26T02:36:08.357Z,1001.11
2016-08-26T02:36:34.885Z,1001.06
2016-08-26T02:36:56.601Z,1001.25
2016-08-26T02:37:18.327Z,1001.12
2016-08-26T02:37:40.075Z,1001.22
2016-08-26T02:38:01.838Z,1001.30
2016-08-26T02:38:23.582Z,1001.21
2016-08-26T02:38:45.301Z,1001.06
2016-08-26T02:39:07.033Z,1001.14
2016-08-26T02:39:33.527Z,1001.02
2016-08-26T02:39:55.256Z,1001.21
2016-08-26T02:40:21.742Z,1001.14
2016-08-26T02:40:43.465Z,1001.14
2016-08-26T02:41:05.200Z,1000.98
2016-08-26T02:41:26.932Z,1000.95
2016-08-26T02:41:48.684Z,1000.85
2016-08-26T02:42:10.409Z,1001.00
2016-08-26T02:42:32.136Z,1001.10
2016-08-26T02:42:53.861Z,1000.93
2016-08-26T02:43:15.614Z,1000.87
2016-08-26T02:43:37.329Z,1001.03
2016-08-26T02:43:59.166Z,1001.06
2016-08-26T02:44:20.929Z,1000.83
2016-08-26T02:44:48.433Z,1000.93
2016-08-26T02:45:17.411Z,1000.76
2016-08-26T02:45:39.147Z,1000.91
2016-08-26T02:46:00.886Z,1001.09
2016-08-26T02:46:22.613Z,1001.31
2016-08-26T02:46:44.337Z,1000.99
2016-08-26T02:47:06.100Z,1001.08
2016-08-26T02:47:27.829Z,1001.28
2016-08-26T02:47:49.561Z,1001.24
2016-08-26T02:48:16.540Z,1001.17
2016-08-26T02:48:38.271Z,1000.81
2016-08-26T02:49:02.156Z,1001.16
2016-08-26T02:49:23.781Z,1001.12
2016-08-26T02:49:45.508Z,1001.10
2016-08-26T02:50:12.011Z,1000.87
2016-08-26T02:50:33.732Z,1000.95
2016-08-26T02:50:55.457Z,1001.08
2016-08-26T02:51:18.176Z,1001.18
2016-08-26T02:51:39.922Z,1001.26
2016-08-26T02:52:01.858Z,1001.29
2016-08-26T02:52:23.474Z,1001.53
2016-08-26T02:52:45.207Z,1001.38
2016-08-26T02:53:07.918Z,1001.11
2016-08-26T02:53:30.659Z,1001.05
2016-08-26T02:53:57.153Z,1000.94
2016-08-26T02:54:18.872Z,1001.09
2016-08-26T02:54:40.591Z,1001.31
2016-08-26T02:55:03.325Z,1001.49
2016-08-26T02:55:25.116Z,1001.34
2016-08-26T02:55:46.835Z,1001.33
2016-08-26T02:56:08.632Z,1001.16
2016-08-26T02:56:30.373Z,1001.23
2016-08-26T02:56:52.098Z,1001.15
2016-08-26T02:57:13.897Z,1001.21
2016-08-26T02:57:35.631Z,1000.96
2016-08-26T02:57:57.391Z,1000.96
2016-08-26T02:58:19.176Z,1001.14
2016-08-26T02:58:40.926Z,1001.09
2016-08-26T02:59:02.734Z,1000.87
2016-08-26T02:59:24.454Z,1001.16
2016-08-26T02:59:46.177Z,1001.23
2016-08-26T03:00:07.916Z,1001.10
2016-08-26T03:00:29.656Z,1001.31
2016-08-26T03:00:54.373Z,1001.45
2016-08-26T03:01:20.873Z,1000.96
2016-08-26T03:01:45.528Z,1001.21
2016-08-26T03:02:07.252Z,1001.07
2016-08-26T03:02:29.021Z,1001.54
2016-08-26T03:02:50.799Z,1001.29
2016-08-26T03:03:12.529Z,1001.37
2016-08-26T03:03:34.358Z,1001.27
2016-08-26T03:03:56.149Z,1000.99
2016-08-26T03:04:17.928Z,1001.18
2016-08-26T03:04:39.669Z,1000.99
2016-08-26T03:05:01.382Z,1000.94
2016-08-26T03:05:27.889Z,1001.05
2016-08-26T03:05:50.630Z,1001.02
2016-08-26T03:06:12.492Z,1001.51
2016-08-26T03:06:34.225Z,1001.40
2016-08-26T03:06:55.945Z,1001.11
2016-08-26T03:07:17.669Z,1001.15
2016-08-26T03:07:44.167Z,1001.26
2016-08-26T03:08:05.890Z,1001.09
2016-08-26T03:08:27.618Z,1001.22
2016-08-26T03:08:49.352Z,1001.16
2016-08-26T03:09:11.119Z,1001.20
2016-08-26T03:09:32.944Z,1001.55
2016-08-26T03:10:26.298Z,1001.29
2016-08-26T03:10:48.021Z,1001.38
2016-08-26T03:11:09.748Z,1001.43
2016-08-26T03:11:31.500Z,1001.27
2016-08-26T03:11:53.253Z,1001.02
2016-08-26T03:12:15.432Z,1001.12
2016-08-26T03:12:37.289Z,1001.11
2016-08-26T03:12:59.068Z,1001.20
2016-08-26T03:13:20.871Z,1001.21
2016-08-26T03:13:42.607Z,1001.06
2016-08-26T03:14:04.336Z,1001.04
2016-08-26T03:14:26.064Z,1001.39
2016-08-26T03:14:47.794Z,1001.36
2016-08-26T03:15:09.526Z,1001.22
2016-08-26T03:15:31.254Z,1001.45
2016-08-26T03:15:52.977Z,1001.48
2016-08-26T03:16:14.702Z,1001.32
2016-08-26T03:16:36.522Z,1001.32
2016-08-26T03:16:58.239Z,1001.33
2016-08-26T03:17:24.760Z,1001.32
2016-08-26T03:17:46.499Z,1001.24
2016-08-26T03:18:08.239Z,1001.23
2016-08-26T03:18:29.963Z,1001.13
2016-08-26T03:18:51.687Z,1001.34
2016-08-26T03:19:13.410Z,1001.25
2016-08-26T03:19:35.212Z,1000.98
2016-08-26T03:19:57.071Z,1001.13
2016-08-26T03:20:18.790Z,1001.21
2016-08-26T03:20:40.518Z,1001.27
2016-08-26T03:21:02.259Z,1001.48
2016-08-26T03:21:23.971Z,1001.31
2016-08-26T03:22:12.181Z,1001.25
2016-08-26T03:22:34.940Z,1001.47
2016-08-26T03:22:56.654Z,1001.46
2016-08-26T03:23:18.375Z,1001.22
2016-08-26T03:23:40.109Z,1001.33
2016-08-26T03:24:01.875Z,1001.41
2016-08-26T03:24:23.610Z,1001.34
2016-08-26T03:24:45.342Z,1001.30
2016-08-26T03:25:07.525Z,1001.26
2016-08-26T03:25:30.243Z,1001.22
2016-08-26T03:25:51.984Z,1001.26
2016-08-26T03:26:13.706Z,1001.23
2016-08-26T03:26:35.484Z,1001.21
2016-08-26T03:26:57.219Z,1001.61
2016-08-26T03:27:19.029Z,1001.49
2016-08-26T03:27:40.822Z,1001.58
2016-08-26T03:28:02.550Z,1001.58
2016-08-26T03:28:24.274Z,1001.45
2016-08-26T03:28:46.029Z,1001.55
2016-08-26T03:29:07.781Z,1001.21
2016-08-26T03:29:29.519Z,1001.04
2016-08-26T03:29:51.242Z,1001.38
2016-08-26T03:30:12.972Z,1001.48
2016-08-26T03:30:35.689Z,1001.40
2016-08-26T03:30:57.523Z,1001.48
2016-08-26T03:31:19.305Z,1001.41
2016-08-26T03:31:41.026Z,1001.44
2016-08-26T03:32:02.745Z,1001.32
2016-08-26T03:32:24.470Z,1001.29
2016-08-26T03:33:12.740Z,1001.40
2016-08-26T03:33:34.476Z,1001.59
2016-08-26T03:33:56.239Z,1001.47
2016-08-26T03:34:17.987Z,1001.30
2016-08-26T03:34:39.783Z,1001.29
2016-08-26T03:35:01.513Z,1001.32
2016-08-26T03:35:23.260Z,1001.40
2016-08-26T03:35:45.046Z,1001.46
2016-08-26T03:36:06.799Z,1001.35
2016-08-26T03:36:28.589Z,1001.43
2016-08-26T03:36:50.306Z,1001.34
2016-08-26T03:37:12.060Z,1001.49
2016-08-26T03:37:34.850Z,1001.35
2016-08-26T03:37:56.582Z,1001.45
2016-08-26T03:38:18.332Z,1001.41
2016-08-26T03:38:40.058Z,1001.57
2016-08-26T03:39:01.789Z,1001.34
2016-08-26T03:39:23.499Z,1001.56
2016-08-26T03:39:45.243Z,1001.46
2016-08-26T03:40:11.743Z,1001.33
2016-08-26T03:40:33.491Z,1001.29
2016-08-26T03:40:59.983Z,1001.47
2016-08-26T03:41:21.704Z,1001.38
2016-08-26T03:41:43.425Z,1001.04
2016-08-26T03:42:05.146Z,1000.98
2016-08-26T03:42:26.870Z,1001.20
2016-08-26T03:42:48.618Z,1001.35
2016-08-26T03:43:10.346Z,1001.51
2016-08-26T03:43:32.069Z,1001.49
2016-08-26T03:43:53.795Z,1001.59
2016-08-26T03:44:15.518Z,1001.33
2016-08-26T03:44:37.241Z,1001.29
2016-08-26T03:44:58.981Z,1001.12
2016-08-26T03:45:20.719Z,1001.36
2016-08-26T03:45:42.449Z,1001.49
2016-08-26T03:46:04.263Z,1001.24
2016-08-26T03:46:25.992Z,1001.64
2016-08-26T03:46:47.718Z,1001.39
2016-08-26T03:47:09.443Z,1001.44
2016-08-26T03:47:31.171Z,1001.35
2016-08-26T03:47:52.944Z,1001.41
2016-08-26T03:48:14.814Z,1001.19
2016-08-26T03:48:36.550Z,1001.27
2016-08-26T03:48:58.332Z,1001.03
2016-08-26T03:49:20.054Z,1001.13
2016-08-26T03:49:41.786Z,1001.32
2016-08-26T03:50:03.519Z,1001.05
2016-08-26T03:50:25.246Z,1001.21
2016-08-26T03:50:46.991Z,1001.20
2016-08-26T03:51:08.716Z,1001.38
2016-08-26T03:51:30.505Z,1001.38
2016-08-26T03:51:52.301Z,1001.44
2016-08-26T03:52:14.065Z,1001.30
2016-08-26T03:52:35.801Z,1001.24
2016-08-26T03:53:02.367Z,1001.42
2016-08-26T03:53:24.103Z,1001.29
2016-08-26T03:53:46.844Z,1001.15
2016-08-26T03:54:08.577Z,1001.32
2016-08-26T03:54:30.303Z,1001.27
2016-08-26T03:54:52.098Z,1001.26
2016-08-26T03:55:13.829Z,1001.37
2016-08-26T03:55:35.640Z,1001.75
2016-08-26T03:55:57.391Z,1001.60
2016-08-26T03:56:19.139Z,1001.52
2016-08-26T03:56:41.941Z,1001.53
2016-08-26T03:57:03.812Z,1001.30
2016-08-26T03:57:25.756Z,1001.40
2016-08-26T03:57:47.626Z,1001.28
2016-08-26T03:58:14.134Z,1001.39
2016-08-26T03:58:40.821Z,1001.28
2016-08-26T03:59:11.988Z,1001.54
2016-08-26T03:59:33.725Z,1001.37
2016-08-26T04:00:21.977Z,1001.41
2016-08-26T04:00:43.711Z,1001.37
2016-08-26T04:01:05.429Z,1001.16
2016-08-26T04:01:27.193Z,1001.47
2016-08-26T04:01:48.951Z,1001.37
2016-08-26T04:02:10.676Z,1001.28
2016-08-26T04:02:32.532Z,1001.44
2016-08-26T04:02:54.271Z,1001.38
2016-08-26T04:03:16.055Z,1001.04
2016-08-26T04:03:37.836Z,1001.17
2016-08-26T04:03:59.558Z,1001.18
2016-08-26T04:04:26.051Z,1001.31
2016-08-26T04:04:47.779Z,1001.31
2016-08-26T04:05:14.281Z,1001.37
2016-08-26T04:05:37.007Z,1001.68
2016-08-26T04:05:58.743Z,1001.60
2016-08-26T04:06:20.493Z,1001.75
2016-08-26T04:06:42.309Z,1001.74
2016-08-26T04:07:58.144Z,1001.35
2016-08-26T04:08:19.928Z,1001.65
2016-08-26T04:08:41.837Z,1001.40
2016-08-26T04:09:03.582Z,1001.34
2016-08-26T04:09:25.437Z,1001.59
2016-08-26T04:09:47.145Z,1001.16
2016-08-26T04:10:08.899Z,1001.65
2016-08-26T04:10:57.138Z,1001.17
2016-08-26T04:11:18.886Z,1001.27
2016-08-26T04:11:40.614Z,1001.40
2016-08-26T04:12:02.335Z,1001.66
2016-08-26T04:12:24.074Z,1001.53
2016-08-26T04:12:50.556Z,1001.63
2016-08-26T04:13:12.279Z,1001.42
2016-08-26T04:13:34.010Z,1001.48
2016-08-26T04:13:55.762Z,1001.64
2016-08-26T04:14:17.487Z,1001.65
2016-08-26T04:14:40.216Z,1001.44
2016-08-26T04:15:01.943Z,1001.78
2016-08-26T04:15:24.753Z,1001.30
2016-08-26T04:15:46.483Z,1001.56
2016-08-26T04:16:08.220Z,1001.34
2016-08-26T04:16:29.952Z,1001.40
2016-08-26T04:16:51.672Z,1001.32
2016-08-26T04:17:13.440Z,1001.29
2016-08-26T04:17:35.167Z,1001.38
2016-08-26T04:17:56.893Z,1001.67
2016-08-26T04:18:18.631Z,1001.67
2016-08-26T04:18:40.363Z,1001.47
2016-08-26T04:19:02.089Z,1001.64
2016-08-26T04:19:23.871Z,1001.70
2016-08-26T04:19:45.736Z,1001.83
2016-08-26T04:20:07.516Z,1001.88
2016-08-26T04:20:29.289Z,1001.73
2016-08-26T04:20:51.078Z,1001.72
2016-08-26T04:21:12.815Z,1001.52
2016-08-26T04:21:34.553Z,1001.48
2016-08-26T04:21:57.283Z,1001.39
2016-08-26T04:23:05.601Z,1001.47
2016-08-26T04:23:27.335Z,1001.56
2016-08-26T04:23:49.046Z,1001.49
2016-08-26T04:24:10.778Z,1001.79
2016-08-26T04:24:40.090Z,1001.68
2016-08-26T04:25:06.582Z,1001.80
2016-08-26T04:25:28.314Z,1001.65
2016-08-26T04:25:50.042Z,1001.67
2016-08-26T04:26:11.797Z,1001.60
2016-08-26T04:26:33.538Z,1001.49
2016-08-26T04:26:55.341Z,1001.55
2016-08-26T04:27:17.067Z,1001.91
2016-08-26T04:27:38.815Z,1001.67
2016-08-26T04:28:00.549Z,1001.68
2016-08-26T04:28:22.284Z,1001.77
2016-08-26T04:28:44.023Z,1001.78
2016-08-26T04:29:05.916Z,1001.93
2016-08-26T04:29:59.072Z,1001.90
2016-08-26T04:30:28.221Z,1002.05
2016-08-26T04:30:51.014Z,1001.76
2016-08-26T04:31:12.778Z,1001.69
2016-08-26T04:31:34.678Z,1001.58
2016-08-26T04:31:56.413Z,1001.61
2016-08-26T04:32:18.194Z,1001.82
2016-08-26T04:32:39.949Z,1001.60
2016-08-26T04:33:01.666Z,1002.02
2016-08-26T04:33:23.393Z,1001.83
2016-08-26T04:33:45.121Z,1001.93
2016-08-26T04:34:06.887Z,1001.83
2016-08-26T04:34:28.608Z,1001.84
2016-08-26T04:34:50.329Z,1001.39
2016-08-26T04:35:12.052Z,1001.55
2016-08-26T04:35:33.771Z,1001.60
2016-08-26T04:35:55.508Z,1001.70
2016-08-26T04:36:17.243Z,1001.92
2016-08-26T04:36:38.963Z,1001.92
2016-08-26T04:37:31.985Z,1001.84
2016-08-26T04:37:53.697Z,1001.63
2016-08-26T04:38:15.411Z,1001.63